Burlington, WA

1:34 AM PDT on September 22, 2014 (GMT -0700)
Skagit Regional | Change Station
CLOSE
Current Station
Airport
Location: Burlington,
Elevation: 144 ft
Nearby Weather Stations

Elev 144 ft 48.47 °N, 122.42 °W | Updated 39 minutes ago

Clear
Clear
59 °F
Feels Like 59 °F
N
7
Wind Variable Wind from South

Today
High -- | Low -- °F
--% Chance of Precip.
Yesterday
High -- | Low -- °F
Precip. -- in
6:56 AM 7:07 PM
Waning Crescent, 3% visible
Pressure 29.94 in
Visibility 10.0 miles
Clouds Clear
Dew Point 57 °F
Humidity 94%
Rainfall 0.00 in
Snow Depth Not available.
UV 0 out of 12
Pollen 1.60 out of 12
PM2.5 Good
Flu Activity Not available.
METAR KBVS 220755Z AUTO 18006KT 10SM CLR 15/14 A2994 RMK A01 P000

More Conditions Fewer Conditions

Pressure 29.94 in
Visibility 10.0 miles
Clouds Clear
Dew Point 57 °F
Humidity 94%
Rainfall 0.00 in
Snow Depth Not available.
UV 0 out of 12
Pollen 1.60 out of 12
PM2.5 Good
Flu Activity Not available.
METAR KBVS 220755Z AUTO 18006KT 10SM CLR 15/14 A2994 RMK A01 P000

More Conditions Fewer Conditions

10-Day Weather Forecast

Almanac

Astronomy

Sep. 22, 2014 Rise Set
Actual Time 6:56 AM PDT 7:07 PM PDT
Civil Twilight 6:24 AM PDT 7:38 PM PDT
Nautical Twilight 5:47 AM PDT 8:15 PM PDT
Astronomical Twilight 5:09 AM PDT 8:53 PM PDT
Moon 5:25 AM PDT 6:19 PM PDT
Length of Visible Light 13h 13m
Length of Day
12h 10m
Tomorrow will be 3m 32s shorter.
Waning Crescent, 3% of the Moon is Illuminated
Today
Waning Crescent
Sep 24
New
Oct 1
First Quarter
Oct 8
Full
Oct 15
Last Quarter

Today's Extremes

State Highs State Lows

Community

WunderPhotos

Upload Photos

1,755,397 photos uploaded!

Nearby

Air Quality

  Air Quality AQ Index Pollutant
Yesterday Good
PM2.5
Yesterday Good
OZONE
Current Good
PM2.5
Sunday Good
OZONE
Sunday Good
PM2.5
Monday Good
OZONE
Monday Good
PM2.5

Snow Depth

Station Depth Elevation
Park Creek Ridge 0 in 4600 ft
Wells Creek 0 in 4200 ft
Spruce Springs 0 in 5700 ft
Grouse Camp 0 in 5380 ft
Sourdough Gulch 0 in 4000 ft

Earthquake Activity

City Distance Mag. Time & Date
No recent earthquake activity has been reported nearby.
Minimum magnitude displayed is 2.5.

Coastal Water Temperatures

Place Temperature
Port Townsend, WA 52.0 °F
Friday Harbor, WA 52.0 °F
Port Angeles, WA 51.1 °F

Nearby Weather Stations